createdAt,value
2019-01-11T00:01:56.612Z,100216.53
2019-01-11T00:04:26.734Z,100220.30
2019-01-11T00:06:57.790Z,100224.38
2019-01-11T00:09:27.502Z,100232.36
2019-01-11T00:11:57.305Z,100242.55
2019-01-11T00:14:27.160Z,100241.11
2019-01-11T00:16:56.832Z,100247.77
2019-01-11T00:19:26.671Z,100252.69
2019-01-11T00:21:56.384Z,100249.83
2019-01-11T00:24:26.386Z,100268.80
2019-01-11T00:26:56.183Z,100267.23
2019-01-11T00:29:25.942Z,100259.30
2019-01-11T00:31:55.706Z,100260.14
2019-01-11T00:34:25.421Z,100260.55
2019-01-11T00:36:55.281Z,100262.47
2019-01-11T00:39:25.039Z,100263.48
2019-01-11T00:41:54.878Z,100269.00
2019-01-11T00:44:24.836Z,100271.37
2019-01-11T00:46:54.702Z,100257.30
2019-01-11T00:49:24.718Z,100257.36
2019-01-11T00:51:54.579Z,100267.52
2019-01-11T00:54:24.561Z,100271.00
2019-01-11T00:56:54.468Z,100278.22
2019-01-11T00:59:24.327Z,100275.33
2019-01-11T01:01:54.321Z,100269.50
2019-01-11T01:04:24.138Z,100266.64
2019-01-11T01:06:55.409Z,100263.26
2019-01-11T01:09:25.435Z,100269.75
2019-01-11T01:11:55.323Z,100271.25
2019-01-11T01:14:25.215Z,100261.17
2019-01-11T01:16:55.308Z,100266.91
2019-01-11T01:19:25.378Z,100269.56
2019-01-11T01:21:55.290Z,100274.68
2019-01-11T01:24:25.178Z,100271.81
2019-01-11T01:26:55.152Z,100276.52
2019-01-11T01:29:25.004Z,100278.45
2019-01-11T01:31:55.022Z,100288.58
2019-01-11T01:34:24.725Z,100292.84
2019-01-11T01:36:54.426Z,100292.62
2019-01-11T01:39:24.388Z,100293.59
2019-01-11T01:41:54.250Z,100299.98
2019-01-11T01:44:24.121Z,100307.86
2019-01-11T01:46:53.878Z,100304.14
2019-01-11T01:49:26.692Z,100308.94
2019-01-11T01:51:55.309Z,100314.59
2019-01-11T01:54:25.158Z,100322.39
2019-01-11T01:56:55.027Z,100331.95
2019-01-11T01:59:25.126Z,100332.53
2019-01-11T02:01:55.844Z,100334.88
2019-01-11T02:04:25.649Z,100348.66
2019-01-11T02:06:55.599Z,100352.17
2019-01-11T02:09:25.471Z,100350.30
2019-01-11T02:11:55.395Z,100346.83
2019-01-11T02:14:25.367Z,100343.95
2019-01-11T02:16:55.238Z,100348.41
2019-01-11T02:19:25.139Z,100339.14
2019-01-11T02:21:54.858Z,100348.69
2019-01-11T02:24:24.684Z,100346.45
2019-01-11T02:26:54.401Z,100349.98
2019-01-11T02:29:24.276Z,100349.02
2019-01-11T02:31:54.284Z,100348.58
2019-01-11T02:34:24.031Z,100353.19
2019-01-11T02:36:54.008Z,100359.95
2019-01-11T02:39:23.920Z,100355.16
2019-01-11T02:41:55.196Z,100352.50
2019-01-11T02:44:25.058Z,100354.92
2019-01-11T02:46:54.814Z,100344.92
2019-01-11T02:49:24.766Z,100349.00
2019-01-11T02:51:54.436Z,100346.30
2019-01-11T02:54:24.349Z,100347.80
2019-01-11T02:56:54.319Z,100362.75
2019-01-11T02:59:24.128Z,100370.64
2019-01-11T03:01:53.785Z,100375.33
2019-01-11T03:04:23.939Z,100383.95
2019-01-11T03:06:53.660Z,100390.61
2019-01-11T03:09:23.860Z,100397.50
2019-01-11T03:11:53.829Z,100405.49
2019-01-11T03:14:23.607Z,100407.64
2019-01-11T03:16:53.511Z,100409.25
2019-01-11T03:19:23.448Z,100416.37
2019-01-11T03:21:53.220Z,100420.36
2019-01-11T03:24:22.956Z,100426.66
2019-01-11T03:26:53.198Z,100429.86
2019-01-11T03:29:22.884Z,100432.38
2019-01-11T03:31:52.691Z,100433.71
2019-01-11T03:34:22.624Z,100446.52
2019-01-11T03:36:52.410Z,100445.67
2019-01-11T03:39:22.348Z,100449.88
2019-01-11T03:42:19.887Z,100451.45
2019-01-11T03:44:49.636Z,100457.56
2019-01-11T03:47:19.498Z,100455.52
2019-01-11T03:49:54.823Z,100464.79
2019-01-11T03:52:21.177Z,100462.00
2019-01-11T03:54:51.011Z,100458.63
2019-01-11T03:57:20.863Z,100483.94
2019-01-11T03:59:50.676Z,100480.48
2019-01-11T04:02:20.846Z,100496.79
2019-01-11T04:04:50.710Z,100498.44
2019-01-11T04:07:20.542Z,100497.39
2019-01-11T04:09:50.305Z,100495.98
2019-01-11T04:12:19.956Z,100503.92
2019-01-11T04:14:49.833Z,100512.00
2019-01-11T04:17:19.595Z,100520.65
2019-01-11T04:19:49.451Z,100532.88
2019-01-11T04:22:26.949Z,100538.54
2019-01-11T04:25:16.050Z,100542.75
2019-01-11T04:27:45.997Z,100548.01
2019-01-11T04:30:18.807Z,100540.55
2019-01-11T04:32:48.575Z,100553.98
2019-01-11T04:35:20.235Z,100560.13
2019-01-11T04:37:50.383Z,100579.81
2019-01-11T04:40:20.677Z,100581.25
2019-01-11T04:42:50.618Z,100586.50
2019-01-11T04:45:20.475Z,100594.77
2019-01-11T04:47:50.259Z,100595.35
2019-01-11T04:50:20.479Z,100606.06
2019-01-11T04:52:50.560Z,100608.34
2019-01-11T04:55:20.696Z,100621.80
2019-01-11T04:57:50.411Z,100633.09
2019-01-11T05:00:22.265Z,100635.69
2019-01-11T05:02:52.428Z,100637.92
2019-01-11T05:05:22.377Z,100648.23
2019-01-11T05:07:52.205Z,100643.50
2019-01-11T05:10:22.090Z,100658.45
2019-01-11T05:12:52.089Z,100652.07
2019-01-11T05:15:21.944Z,100667.72
2019-01-11T05:17:51.892Z,100664.92
2019-01-11T05:20:21.697Z,100665.50
2019-01-11T05:22:51.708Z,100669.93
2019-01-11T05:25:21.611Z,100684.07
2019-01-11T05:27:51.580Z,100673.14
2019-01-11T05:30:21.768Z,100671.19
2019-01-11T05:32:53.782Z,100679.09
2019-01-11T05:35:23.969Z,100678.78
2019-01-11T05:37:53.771Z,100680.16
2019-01-11T05:40:23.695Z,100680.30
2019-01-11T05:42:53.606Z,100690.95
2019-01-11T05:45:24.005Z,100688.73
2019-01-11T05:47:54.139Z,100698.75
2019-01-11T05:50:24.554Z,100698.31
2019-01-11T05:52:54.392Z,100699.80
2019-01-11T05:55:52.296Z,100709.31
2019-01-11T05:58:38.808Z,100714.71
2019-01-11T06:01:08.780Z,100730.91
2019-01-11T06:03:38.748Z,100736.44
2019-01-11T06:06:09.770Z,100736.20
2019-01-11T06:08:39.993Z,100743.89
2019-01-11T06:11:10.207Z,100755.37
2019-01-11T06:13:40.012Z,100760.52
2019-01-11T06:16:11.476Z,100756.83
2019-01-11T06:18:41.403Z,100761.80
2019-01-11T06:21:11.179Z,100754.67
2019-01-11T06:23:41.237Z,100757.70
2019-01-11T06:26:11.066Z,100764.73
2019-01-11T06:28:40.933Z,100772.20
2019-01-11T06:31:10.871Z,100774.56
2019-01-11T06:33:41.640Z,100782.05
2019-01-11T06:36:11.403Z,100790.14
2019-01-11T06:38:41.199Z,100800.38
2019-01-11T06:41:11.134Z,100808.44
2019-01-11T06:43:41.136Z,100811.64
2019-01-11T06:46:11.042Z,100822.73
2019-01-11T06:48:44.099Z,100825.62
2019-01-11T06:51:14.100Z,100834.00
2019-01-11T06:53:44.063Z,100845.64
2019-01-11T06:56:14.045Z,100851.12
2019-01-11T06:58:43.819Z,100865.06
2019-01-11T07:01:13.637Z,100868.39
2019-01-11T07:03:43.696Z,100872.17
2019-01-11T07:06:13.686Z,100878.02
2019-01-11T07:08:43.788Z,100881.52
2019-01-11T07:11:14.874Z,100889.09
2019-01-11T07:13:44.645Z,100878.45
2019-01-11T07:16:14.314Z,100880.49
2019-01-11T07:18:44.309Z,100870.53
2019-01-11T07:21:14.093Z,100881.63
2019-01-11T07:23:43.948Z,100888.79
2019-01-11T07:26:13.845Z,100890.67
2019-01-11T07:28:43.742Z,100894.58
2019-01-11T07:31:20.880Z,100904.69
2019-01-11T07:33:50.552Z,100910.53
2019-01-11T07:36:35.252Z,100918.70
2019-01-11T07:39:20.659Z,100914.45
2019-01-11T07:41:50.486Z,100916.25
2019-01-11T07:44:20.226Z,100905.00
2019-01-11T07:46:50.028Z,100902.34
2019-01-11T07:49:23.293Z,100908.88
2019-01-11T07:51:51.597Z,100901.68
2019-01-11T07:54:22.069Z,100909.88
2019-01-11T07:56:53.052Z,100916.01
2019-01-11T07:59:23.604Z,100907.53
2019-01-11T08:01:53.656Z,100901.80
2019-01-11T08:04:23.447Z,100909.64
2019-01-11T08:06:53.252Z,100911.37
2019-01-11T08:09:23.115Z,100925.15
2019-01-11T08:11:53.131Z,100942.35
2019-01-11T08:14:23.002Z,100953.59
2019-01-11T08:16:52.930Z,100959.63
2019-01-11T08:19:22.789Z,100971.23
2019-01-11T08:21:52.655Z,100977.66
2019-01-11T08:24:22.458Z,100970.70
2019-01-11T08:26:54.566Z,100978.63
2019-01-11T08:29:24.438Z,100970.08
2019-01-11T08:31:54.150Z,100975.16
2019-01-11T08:34:24.188Z,100988.58
2019-01-11T08:36:53.975Z,100995.31
2019-01-11T08:39:23.715Z,100987.67
2019-01-11T08:41:53.597Z,100979.75
2019-01-11T08:44:23.353Z,100989.61
2019-01-11T08:46:53.313Z,100982.89
2019-01-11T08:49:24.402Z,100999.44
2019-01-11T08:51:54.295Z,100993.05
2019-01-11T08:54:24.082Z,100999.91
2019-01-11T08:56:53.892Z,100979.75
2019-01-11T08:59:23.564Z,100991.99
2019-01-11T09:01:54.618Z,100995.94
2019-01-11T09:04:24.399Z,100993.77
2019-01-11T09:06:54.209Z,100987.23
2019-01-11T09:09:24.174Z,100992.96
2019-01-11T09:11:54.166Z,100992.80
2019-01-11T09:14:51.921Z,100997.88
2019-01-11T09:17:21.951Z,100997.19
2019-01-11T09:19:51.659Z,100992.97
2019-01-11T09:22:21.607Z,100999.87
2019-01-11T09:24:51.375Z,100997.72
2019-01-11T09:27:21.235Z,101003.84
2019-01-11T09:29:51.159Z,101001.21
2019-01-11T09:32:21.016Z,100992.23
2019-01-11T09:34:52.145Z,100996.56
2019-01-11T09:37:21.900Z,100975.72
2019-01-11T09:39:51.714Z,100987.19
2019-01-11T09:42:21.576Z,100995.59
2019-01-11T09:44:51.549Z,100990.89
2019-01-11T09:47:21.500Z,100976.41
2019-01-11T09:49:51.390Z,100973.10
2019-01-11T09:52:21.231Z,100969.66
2019-01-11T09:54:51.340Z,100975.73
2019-01-11T09:57:21.226Z,100979.89
2019-01-11T09:59:51.288Z,100991.52
2019-01-11T10:02:35.570Z,100990.31
2019-01-11T10:05:07.074Z,100998.95
2019-01-11T10:07:37.188Z,100994.57
2019-01-11T10:10:09.892Z,100991.64
2019-01-11T10:12:39.885Z,100995.41
2019-01-11T10:15:11.041Z,100999.70
2019-01-11T10:17:40.997Z,100997.08
2019-01-11T10:20:11.553Z,101001.42
2019-01-11T10:22:41.593Z,100999.34
2019-01-11T10:25:11.544Z,100982.37
2019-01-11T10:27:41.297Z,100991.62
2019-01-11T10:30:13.998Z,100996.98
2019-01-11T10:32:44.465Z,100997.34
2019-01-11T10:35:14.449Z,100989.93
2019-01-11T10:37:44.283Z,100988.12
2019-01-11T10:40:16.463Z,100993.65
2019-01-11T10:42:46.516Z,100999.06
2019-01-11T10:45:18.784Z,101002.60
2019-01-11T10:47:48.768Z,101010.37
2019-01-11T10:50:18.668Z,101009.17
2019-01-11T10:52:48.536Z,101002.01
2019-01-11T10:55:18.819Z,101014.07
2019-01-11T10:57:49.434Z,101012.18
2019-01-11T11:00:29.720Z,101004.30
2019-01-11T11:03:00.027Z,101019.35
2019-01-11T11:05:29.904Z,101006.03
2019-01-11T11:07:59.664Z,101014.98
2019-01-11T11:10:29.516Z,101022.15
2019-01-11T11:12:59.271Z,101023.41
2019-01-11T11:15:29.219Z,101020.40
2019-01-11T11:17:59.087Z,101024.25
2019-01-11T11:20:28.927Z,101020.80
2019-01-11T11:22:58.762Z,101029.50
2019-01-11T11:25:30.077Z,101034.34
2019-01-11T11:27:59.904Z,101040.81
2019-01-11T11:30:29.742Z,101044.13
2019-01-11T11:33:00.463Z,101044.71
2019-01-11T11:35:31.054Z,101049.22
2019-01-11T11:38:00.782Z,101039.95
2019-01-11T11:40:31.542Z,101048.58
2019-01-11T11:43:04.133Z,101037.43
2019-01-11T11:45:34.042Z,101021.48
2019-01-11T11:48:03.945Z,101034.28
2019-01-11T11:50:33.740Z,101038.95
2019-01-11T11:53:03.738Z,101031.84
2019-01-11T11:55:33.692Z,101028.94
2019-01-11T11:58:03.490Z,101041.95
2019-01-11T12:00:33.458Z,101044.97
2019-01-11T12:03:03.231Z,101039.34
2019-01-11T12:05:32.984Z,101044.71
2019-01-11T12:08:03.997Z,101036.52
2019-01-11T12:10:33.790Z,101036.59
2019-01-11T12:13:03.616Z,101031.78
2019-01-11T12:15:33.752Z,101027.52
2019-01-11T12:18:03.667Z,101026.73
2019-01-11T12:20:34.259Z,101032.44
2019-01-11T12:23:04.254Z,101034.86
2019-01-11T12:25:33.962Z,101028.92
2019-01-11T12:28:03.631Z,101036.28
2019-01-11T12:30:33.554Z,101031.28
2019-01-11T12:33:03.422Z,101039.77
2019-01-11T12:35:33.060Z,101030.63
2019-01-11T12:38:04.229Z,101035.91
2019-01-11T12:40:34.249Z,101046.50
2019-01-11T12:43:04.037Z,101067.09
2019-01-11T12:45:34.028Z,101070.34
2019-01-11T12:48:04.096Z,101066.81
2019-01-11T12:50:33.898Z,101055.98
2019-01-11T12:53:06.349Z,101047.70
2019-01-11T12:55:35.988Z,101071.45
2019-01-11T12:58:05.919Z,101067.98
2019-01-11T13:00:36.403Z,101081.60
2019-01-11T13:03:06.145Z,101080.23
2019-01-11T13:05:36.069Z,101097.20
2019-01-11T13:08:06.016Z,101100.58
2019-01-11T13:10:35.712Z,101094.84
2019-01-11T13:13:05.413Z,101098.41
2019-01-11T13:15:35.296Z,101097.05
2019-01-11T13:18:05.143Z,101099.69
2019-01-11T13:20:34.858Z,101105.00
2019-01-11T13:23:06.523Z,101100.22
2019-01-11T13:25:36.410Z,101119.90
2019-01-11T13:28:06.126Z,101112.52
2019-01-11T13:30:35.970Z,101108.67
2019-01-11T13:33:05.968Z,101112.26
2019-01-11T13:35:35.776Z,101114.49
2019-01-11T13:38:06.936Z,101102.19
2019-01-11T13:40:36.835Z,101120.70
2019-01-11T13:43:06.747Z,101112.08
2019-01-11T13:45:36.717Z,101111.42
2019-01-11T13:48:07.766Z,101114.22
2019-01-11T13:50:42.141Z,101121.59
2019-01-11T13:53:20.070Z,101088.11
2019-01-11T13:55:49.962Z,101117.55
2019-01-11T13:58:19.764Z,101125.73
2019-01-11T14:00:49.720Z,101115.03
2019-01-11T14:03:19.509Z,101129.04
2019-01-11T14:05:49.404Z,101127.75
2019-01-11T14:08:20.480Z,101117.10
2019-01-11T14:10:50.295Z,101132.09
2019-01-11T14:13:20.097Z,101138.02
2019-01-11T14:15:50.177Z,101145.93
2019-01-11T14:18:20.038Z,101150.77
2019-01-11T14:20:49.840Z,101147.33
2019-01-11T14:23:19.790Z,101148.14
2019-01-11T14:25:49.565Z,101154.72
2019-01-11T14:28:19.385Z,101146.11
2019-01-11T14:30:49.355Z,101152.70
2019-01-11T14:33:19.201Z,101156.27
2019-01-11T14:35:49.062Z,101161.09
2019-01-11T14:38:19.005Z,101158.66
2019-01-11T14:40:48.673Z,101168.02
2019-01-11T14:43:18.478Z,101164.52
2019-01-11T14:45:49.628Z,101169.91
2019-01-11T14:48:19.537Z,101168.04
2019-01-11T14:50:49.333Z,101181.34
2019-01-11T14:53:18.996Z,101174.53
2019-01-11T14:55:48.667Z,101183.18
2019-01-11T14:58:19.322Z,101190.25
2019-01-11T15:00:49.290Z,101187.78
2019-01-11T15:03:19.036Z,101190.80
2019-01-11T15:05:48.964Z,101195.12
2019-01-11T15:08:18.865Z,101199.07
2019-01-11T15:10:48.796Z,101200.70
2019-01-11T15:13:18.711Z,101206.87
2019-01-11T15:15:48.403Z,101198.42
2019-01-11T15:18:18.318Z,101197.73
2019-01-11T15:20:48.391Z,101205.39
2019-01-11T15:23:18.206Z,101212.53
2019-01-11T15:25:48.071Z,101211.08
2019-01-11T15:28:17.975Z,101204.41
2019-01-11T15:30:47.812Z,101212.92
2019-01-11T15:33:17.573Z,101215.12
2019-01-11T15:35:48.586Z,101216.91
2019-01-11T15:38:18.612Z,101220.96
2019-01-11T15:40:48.516Z,101227.89
2019-01-11T15:43:18.390Z,101221.92
2019-01-11T15:45:48.216Z,101229.87
2019-01-11T15:48:20.553Z,101228.33
2019-01-11T15:50:57.999Z,101231.39
2019-01-11T15:53:35.655Z,101229.42
2019-01-11T15:56:06.850Z,101234.16
2019-01-11T15:58:36.649Z,101235.93
2019-01-11T16:01:07.124Z,101241.48
2019-01-11T16:03:37.014Z,101243.52
2019-01-11T16:06:31.893Z,101245.53
2019-01-11T16:10:02.046Z,101247.86
2019-01-11T16:12:44.673Z,101250.86
2019-01-11T16:15:46.895Z,101253.11
2019-01-11T16:18:26.219Z,101254.33
2019-01-11T16:20:56.080Z,101257.22
2019-01-11T16:23:25.891Z,101256.97
2019-01-11T16:25:56.959Z,101256.12
2019-01-11T16:28:26.675Z,101265.92
2019-01-11T16:30:56.395Z,101260.70
2019-01-11T16:33:26.261Z,101270.20
2019-01-11T16:35:56.061Z,101273.07
2019-01-11T16:38:25.928Z,101276.11
2019-01-11T16:40:55.728Z,101276.47
2019-01-11T16:43:25.819Z,101286.36
2019-01-11T16:45:55.669Z,101291.91
2019-01-11T16:48:25.479Z,101297.61
2019-01-11T16:50:55.499Z,101299.73
2019-01-11T16:53:25.702Z,101301.02
2019-01-11T16:55:55.687Z,101298.80
2019-01-11T16:58:25.367Z,101304.64
2019-01-11T17:00:55.281Z,101303.16
2019-01-11T17:03:25.217Z,101311.11
2019-01-11T17:05:55.068Z,101312.03
2019-01-11T17:08:24.805Z,101312.31
2019-01-11T17:10:54.693Z,101310.53
2019-01-11T17:13:24.493Z,101320.01
2019-01-11T17:15:54.374Z,101321.16
2019-01-11T17:18:24.260Z,101321.42
2019-01-11T17:20:54.451Z,101325.75
2019-01-11T17:23:24.212Z,101327.03
2019-01-11T17:25:54.142Z,101328.80
2019-01-11T17:28:24.170Z,101327.56
2019-01-11T17:30:54.407Z,101321.00
2019-01-11T17:33:24.318Z,101319.64
2019-01-11T17:35:53.953Z,101322.14
2019-01-11T17:38:23.709Z,101319.60
2019-01-11T17:40:53.800Z,101322.92
2019-01-11T17:43:23.544Z,101325.72
2019-01-11T17:45:53.481Z,101319.73
2019-01-11T17:48:23.375Z,101320.80
2019-01-11T17:50:53.094Z,101327.89
2019-01-11T17:53:22.852Z,101335.23
2019-01-11T17:55:52.633Z,101341.51
2019-01-11T17:58:22.602Z,101337.94
2019-01-11T18:00:54.538Z,101345.56
2019-01-11T18:03:25.366Z,101342.92
2019-01-11T18:05:55.419Z,101353.55
2019-01-11T18:08:25.606Z,101351.04
2019-01-11T18:10:55.303Z,101357.30
2019-01-11T18:13:25.386Z,101353.09
2019-01-11T18:15:55.320Z,101361.63
2019-01-11T18:18:25.158Z,101354.73
2019-01-11T18:20:56.259Z,101362.83
2019-01-11T18:23:25.939Z,101363.30
2019-01-11T18:25:55.882Z,101366.06
2019-01-11T18:28:26.924Z,101364.44
2019-01-11T18:30:56.927Z,101367.05
2019-01-11T18:33:27.025Z,101372.74
2019-01-11T18:35:58.280Z,101367.22
2019-01-11T18:38:28.108Z,101369.98
2019-01-11T18:40:57.919Z,101377.37
2019-01-11T18:43:28.196Z,101378.72
2019-01-11T18:45:57.849Z,101382.24
2019-01-11T18:48:27.973Z,101374.21
2019-01-11T18:50:58.068Z,101380.29
2019-01-11T18:53:27.798Z,101387.13
2019-01-11T18:55:57.748Z,101385.91
2019-01-11T18:58:27.648Z,101387.73
2019-01-11T19:00:57.481Z,101382.67
2019-01-11T19:03:27.295Z,101388.89
2019-01-11T19:05:57.308Z,101386.71
2019-01-11T19:08:27.126Z,101388.70
2019-01-11T19:10:57.269Z,101391.26
2019-01-11T19:13:27.052Z,101392.38
2019-01-11T19:15:56.752Z,101401.41
2019-01-11T19:18:27.731Z,101395.42
2019-01-11T19:20:57.693Z,101399.98
2019-01-11T19:23:27.449Z,101404.06
2019-01-11T19:25:57.347Z,101404.17
2019-01-11T19:28:28.719Z,101405.30
2019-01-11T19:30:58.635Z,101405.36
2019-01-11T19:33:28.463Z,101409.50
2019-01-11T19:35:58.572Z,101397.62
2019-01-11T19:38:28.552Z,101409.98
2019-01-11T19:40:58.499Z,101407.02
2019-01-11T19:43:28.230Z,101407.55
2019-01-11T19:45:58.000Z,101409.38
2019-01-11T19:48:27.934Z,101410.30
2019-01-11T19:50:57.784Z,101403.91
2019-01-11T19:53:27.917Z,101409.20
2019-01-11T19:55:58.928Z,101401.67
2019-01-11T19:58:30.173Z,101399.55
2019-01-11T20:01:00.012Z,101397.83
2019-01-11T20:03:29.879Z,101399.45
2019-01-11T20:05:59.629Z,101389.66
2019-01-11T20:08:29.410Z,101395.38
2019-01-11T20:10:59.577Z,101395.84
2019-01-11T20:13:29.466Z,101389.96
2019-01-11T20:16:00.077Z,101377.30
2019-01-11T20:18:32.344Z,101379.24
2019-01-11T20:21:02.260Z,101375.05
2019-01-11T20:23:36.599Z,101362.36
2019-01-11T20:26:04.985Z,101361.55
2019-01-11T20:28:34.775Z,101364.03
2019-01-11T20:31:05.032Z,101357.00
2019-01-11T20:33:36.191Z,101361.21
2019-01-11T20:36:06.405Z,101354.78
2019-01-11T20:38:36.281Z,101365.77
2019-01-11T20:41:06.281Z,101364.92
2019-01-11T20:43:37.510Z,101358.58
2019-01-11T20:46:07.276Z,101353.03
2019-01-11T20:48:37.194Z,101358.66
2019-01-11T20:51:07.121Z,101366.70
2019-01-11T20:53:41.621Z,101355.94
2019-01-11T20:56:08.527Z,101347.42
2019-01-11T20:58:38.292Z,101349.84
2019-01-11T21:01:08.390Z,101351.93
2019-01-11T21:03:38.261Z,101358.78
2019-01-11T21:06:08.053Z,101353.58
2019-01-11T21:08:37.973Z,101356.37
2019-01-11T21:11:07.948Z,101346.66
2019-01-11T21:13:37.867Z,101338.11
2019-01-11T21:16:07.580Z,101333.79
2019-01-11T21:18:37.797Z,101325.56
2019-01-11T21:21:08.052Z,101329.40
2019-01-11T21:23:38.056Z,101344.86
2019-01-11T21:26:08.152Z,101343.92
2019-01-11T21:28:37.913Z,101338.28
2019-01-11T21:31:07.707Z,101338.34
2019-01-11T21:33:38.815Z,101348.56
2019-01-11T21:36:08.465Z,101348.03
2019-01-11T21:38:38.407Z,101352.06
2019-01-11T21:41:09.771Z,101341.08
2019-01-11T21:43:39.670Z,101331.02
2019-01-11T21:46:09.658Z,101327.63
2019-01-11T21:48:39.759Z,101334.91
2019-01-11T21:51:09.513Z,101331.98
2019-01-11T21:53:39.425Z,101350.41
2019-01-11T21:56:09.306Z,101352.39
2019-01-11T21:58:39.267Z,101337.89
2019-01-11T22:01:09.078Z,101340.70
2019-01-11T22:03:38.914Z,101331.23
2019-01-11T22:06:08.910Z,101339.09
2019-01-11T22:08:38.853Z,101340.00
2019-01-11T22:11:08.548Z,101339.85
2019-01-11T22:13:38.516Z,101346.29
2019-01-11T22:16:09.854Z,101349.98
2019-01-11T22:18:39.617Z,101348.18
2019-01-11T22:21:09.601Z,101332.36
2019-01-11T22:23:39.961Z,101335.88
2019-01-11T22:26:09.892Z,101347.86
2019-01-11T22:28:39.774Z,101356.27
2019-01-11T22:31:09.621Z,101355.84
2019-01-11T22:33:39.742Z,101347.80
2019-01-11T22:36:09.506Z,101350.16
2019-01-11T22:38:39.434Z,101363.41
2019-01-11T22:41:09.546Z,101368.38
2019-01-11T22:43:39.556Z,101365.29
2019-01-11T22:46:09.438Z,101366.13
2019-01-11T22:48:39.384Z,101353.08
2019-01-11T22:51:09.210Z,101359.52
2019-01-11T22:53:39.218Z,101363.08
2019-01-11T22:56:09.155Z,101362.30
2019-01-11T22:58:39.311Z,101362.37
2019-01-11T23:01:39.046Z,101367.11
2019-01-11T23:04:08.780Z,101364.47
2019-01-11T23:07:02.375Z,101366.73
2019-01-11T23:09:57.109Z,101359.06
2019-01-11T23:12:41.268Z,101361.95
2019-01-11T23:15:21.326Z,101361.77
2019-01-11T23:17:57.933Z,101366.34
2019-01-11T23:20:27.779Z,101364.26
2019-01-11T23:22:57.688Z,101374.40
2019-01-11T23:25:27.918Z,101377.00
2019-01-11T23:27:58.014Z,101372.79
2019-01-11T23:30:28.052Z,101377.24
2019-01-11T23:32:58.892Z,101380.32
2019-01-11T23:35:29.048Z,101376.87
2019-01-11T23:37:58.927Z,101375.83
2019-01-11T23:40:29.461Z,101368.43
2019-01-11T23:42:59.322Z,101367.58
2019-01-11T23:45:29.239Z,101357.59
2019-01-11T23:47:59.122Z,101360.22
2019-01-11T23:50:29.176Z,101357.98
2019-01-11T23:52:58.882Z,101357.45
2019-01-11T23:55:29.058Z,101353.44
2019-01-11T23:57:58.890Z,101359.03
